sensor_id;sensor_type;location;lat;lon;timestamp;P1;durP1;ratioP1;P2;durP2;ratioP2
18296;SDS011;18066;52.106;5.534;2024-03-02T00:03:26;1.60;;;0.80;;
18296;SDS011;18066;52.106;5.534;2024-03-02T00:08:57;0.90;;;0.80;;
18296;SDS011;18066;52.106;5.534;2024-03-02T00:09:41;2.53;;;0.70;;
18296;SDS011;18066;52.106;5.534;2024-03-02T00:12:30;2.03;;;1.27;;
18296;SDS011;18066;52.106;5.534;2024-03-02T00:15:39;5.43;;;1.20;;
18296;SDS011;18066;52.106;5.534;2024-03-02T00:18:35;1.77;;;0.60;;
18296;SDS011;18066;52.106;5.534;2024-03-02T00:25:55;1.53;;;0.80;;
18296;SDS011;18066;52.106;5.534;2024-03-02T00:31:47;2.80;;;0.90;;
18296;SDS011;18066;52.106;5.534;2024-03-02T00:34:23;1.83;;;0.87;;
18296;SDS011;18066;52.106;5.534;2024-03-02T00:37:19;2.43;;;0.90;;
18296;SDS011;18066;52.106;5.534;2024-03-02T00:40:32;5.27;;;0.97;;
18296;SDS011;18066;52.106;5.534;2024-03-02T00:46:59;1.03;;;0.70;;
18296;SDS011;18066;52.106;5.534;2024-03-02T00:49:52;1.47;;;0.87;;
18296;SDS011;18066;52.106;5.534;2024-03-02T00:53:08;8.17;;;1.20;;
18296;SDS011;18066;52.106;5.534;2024-03-02T00:56:20;2.80;;;0.90;;
18296;SDS011;18066;52.106;5.534;2024-03-02T00:59:10;1.40;;;0.60;;
18296;SDS011;18066;52.106;5.534;2024-03-02T09:04:23;2.73;;;0.37;;
18296;SDS011;18066;52.106;5.534;2024-03-02T09:10:50;2.97;;;0.50;;
18296;SDS011;18066;52.106;5.534;2024-03-02T09:13:32;1.60;;;0.70;;
18296;SDS011;18066;52.106;5.534;2024-03-02T09:23:05;1.77;;;0.30;;
18296;SDS011;18066;52.106;5.534;2024-03-02T12:01:39;1.47;;;0.70;;
18296;SDS011;18066;52.106;5.534;2024-03-02T12:07:33;2.03;;;0.70;;
18296;SDS011;18066;52.106;5.534;2024-03-02T12:10:35;3.20;;;0.60;;
18296;SDS011;18066;52.106;5.534;2024-03-02T12:31:03;5.63;;;0.68;;
18296;SDS011;18066;52.106;5.534;2024-03-02T12:34:35;1.80;;;0.50;;
18296;SDS011;18066;52.106;5.534;2024-03-02T12:45:06;1.90;;;0.93;;
18296;SDS011;18066;52.106;5.534;2024-03-02T12:47:43;2.20;;;0.73;;
18296;SDS011;18066;52.106;5.534;2024-03-02T15:09:56;3.22;;;0.88;;
18296;SDS011;18066;52.106;5.534;2024-03-02T15:16:27;4.50;;;1.13;;
18296;SDS011;18066;52.106;5.534;2024-03-02T15:19:31;3.55;;;0.70;;
18296;SDS011;18066;52.106;5.534;2024-03-02T15:39:54;1.13;;;0.50;;
18296;SDS011;18066;52.106;5.534;2024-03-02T15:45:47;0.77;;;0.60;;
18296;SDS011;18066;52.106;5.534;2024-03-02T15:47:05;4.13;;;0.88;;
18296;SDS011;18066;52.106;5.534;2024-03-02T15:50:01;2.78;;;0.90;;
18296;SDS011;18066;52.106;5.534;2024-03-02T16:02:49;3.53;;;0.70;;
18296;SDS011;18066;52.106;5.534;2024-03-02T16:05:51;4.05;;;0.82;;
18296;SDS011;18066;52.106;5.534;2024-03-02T16:08:19;2.90;;;0.70;;
18296;SDS011;18066;52.106;5.534;2024-03-02T16:10:46;3.35;;;0.63;;
18296;SDS011;18066;52.106;5.534;2024-03-02T16:13:13;4.32;;;0.88;;
18296;SDS011;18066;52.106;5.534;2024-03-02T16:15:40;4.53;;;1.40;;
18296;SDS011;18066;52.106;5.534;2024-03-02T16:18:07;5.68;;;2.30;;
18296;SDS011;18066;52.106;5.534;2024-03-02T16:20:34;8.65;;;4.68;;
18296;SDS011;18066;52.106;5.534;2024-03-02T16:23:05;7.00;;;3.63;;
18296;SDS011;18066;52.106;5.534;2024-03-02T16:25:32;5.25;;;2.30;;
18296;SDS011;18066;52.106;5.534;2024-03-02T16:28:06;3.92;;;1.63;;
18296;SDS011;18066;52.106;5.534;2024-03-02T16:30:35;2.20;;;1.13;;
18296;SDS011;18066;52.106;5.534;2024-03-02T16:33:02;1.17;;;0.77;;
18296;SDS011;18066;52.106;5.534;2024-03-02T16:35:30;1.52;;;1.15;;
18296;SDS011;18066;52.106;5.534;2024-03-02T16:37:58;5.05;;;1.70;;
18296;SDS011;18066;52.106;5.534;2024-03-02T16:40:29;4.18;;;1.63;;
18296;SDS011;18066;52.106;5.534;2024-03-02T16:42:59;4.03;;;2.15;;
18296;SDS011;18066;52.106;5.534;2024-03-02T16:45:26;3.67;;;2.07;;
18296;SDS011;18066;52.106;5.534;2024-03-02T16:47:55;3.38;;;1.52;;
18296;SDS011;18066;52.106;5.534;2024-03-02T16:50:22;2.53;;;1.45;;
18296;SDS011;18066;52.106;5.534;2024-03-02T16:52:50;3.93;;;1.30;;
18296;SDS011;18066;52.106;5.534;2024-03-02T16:55:22;1.73;;;1.20;;
18296;SDS011;18066;52.106;5.534;2024-03-02T16:57:50;2.30;;;1.58;;
18296;SDS011;18066;52.106;5.534;2024-03-02T17:00:18;3.23;;;1.30;;
18296;SDS011;18066;52.106;5.534;2024-03-02T17:02:45;3.97;;;1.20;;
18296;SDS011;18066;52.106;5.534;2024-03-02T17:05:12;3.83;;;1.20;;
18296;SDS011;18066;52.106;5.534;2024-03-02T17:07:39;2.87;;;1.40;;
18296;SDS011;18066;52.106;5.534;2024-03-02T17:10:06;2.43;;;1.40;;
18296;SDS011;18066;52.106;5.534;2024-03-02T17:12:33;2.67;;;1.43;;
18296;SDS011;18066;52.106;5.534;2024-03-02T17:15:02;2.00;;;0.90;;
18296;SDS011;18066;52.106;5.534;2024-03-02T17:17:29;3.97;;;1.10;;
18296;SDS011;18066;52.106;5.534;2024-03-02T17:19:57;1.70;;;1.07;;
18296;SDS011;18066;52.106;5.534;2024-03-02T17:22:26;2.47;;;1.40;;
18296;SDS011;18066;52.106;5.534;2024-03-02T17:24:53;1.77;;;1.17;;
18296;SDS011;18066;52.106;5.534;2024-03-02T17:27:21;2.10;;;1.13;;
18296;SDS011;18066;52.106;5.534;2024-03-02T17:29:47;2.93;;;1.30;;
18296;SDS011;18066;52.106;5.534;2024-03-02T17:32:16;1.97;;;1.23;;
18296;SDS011;18066;52.106;5.534;2024-03-02T17:34:43;2.03;;;1.40;;
18296;SDS011;18066;52.106;5.534;2024-03-02T17:37:10;2.20;;;1.27;;
18296;SDS011;18066;52.106;5.534;2024-03-02T17:39:38;1.20;;;0.90;;
18296;SDS011;18066;52.106;5.534;2024-03-02T17:42:05;2.60;;;1.13;;
18296;SDS011;18066;52.106;5.534;2024-03-02T17:44:32;1.73;;;1.10;;
18296;SDS011;18066;52.106;5.534;2024-03-02T17:46:59;2.07;;;1.23;;
18296;SDS011;18066;52.106;5.534;2024-03-02T17:49:27;2.43;;;1.30;;
18296;SDS011;18066;52.106;5.534;2024-03-02T17:51:54;1.43;;;0.90;;
18296;SDS011;18066;52.106;5.534;2024-03-02T17:54:23;2.30;;;1.47;;
18296;SDS011;18066;52.106;5.534;2024-03-02T17:56:52;4.30;;;1.43;;
18296;SDS011;18066;52.106;5.534;2024-03-02T17:59:20;2.07;;;1.40;;
18296;SDS011;18066;52.106;5.534;2024-03-02T18:01:47;1.70;;;1.30;;
18296;SDS011;18066;52.106;5.534;2024-03-02T18:04:14;1.00;;;0.90;;
18296;SDS011;18066;52.106;5.534;2024-03-02T18:06:43;2.50;;;1.20;;
18296;SDS011;18066;52.106;5.534;2024-03-02T18:09:10;2.20;;;1.30;;
18296;SDS011;18066;52.106;5.534;2024-03-02T18:11:38;2.30;;;1.47;;
18296;SDS011;18066;52.106;5.534;2024-03-02T18:14:05;5.57;;;1.60;;
18296;SDS011;18066;52.106;5.534;2024-03-02T18:16:32;1.97;;;1.50;;
18296;SDS011;18066;52.106;5.534;2024-03-02T18:19:01;3.00;;;1.60;;
18296;SDS011;18066;52.106;5.534;2024-03-02T18:21:30;1.33;;;1.23;;
18296;SDS011;18066;52.106;5.534;2024-03-02T18:27:02;1.40;;;1.10;;
18296;SDS011;18066;52.106;5.534;2024-03-02T18:32:19;1.83;;;1.40;;
18296;SDS011;18066;52.106;5.534;2024-03-02T18:33:40;1.97;;;1.43;;
18296;SDS011;18066;52.106;5.534;2024-03-02T18:43:53;3.13;;;1.50;;
